createdAt,value
2023-02-26T00:00:24.978Z,3.08
2023-02-26T00:02:52.808Z,2.90
2023-02-26T00:05:20.897Z,3.65
2023-02-26T00:07:48.613Z,3.20
2023-02-26T00:10:16.749Z,2.95
2023-02-26T00:12:47.000Z,3.47
2023-02-26T00:15:17.731Z,3.25
2023-02-26T00:17:54.499Z,3.28
2023-02-26T00:20:23.405Z,3.42
2023-02-26T00:22:52.024Z,2.67
2023-02-26T00:25:19.952Z,3.30
2023-02-26T00:27:49.971Z,2.88
2023-02-26T00:30:18.346Z,3.03
2023-02-26T00:32:46.924Z,2.70
2023-02-26T00:35:16.882Z,3.78
2023-02-26T00:37:59.947Z,2.90
2023-02-26T00:40:42.534Z,2.83
2023-02-26T00:43:16.404Z,3.13
2023-02-26T00:45:49.228Z,3.00
2023-02-26T00:48:31.424Z,3.17
2023-02-26T00:51:07.464Z,3.08
2023-02-26T00:53:40.485Z,3.37
2023-02-26T00:56:08.294Z,3.78
2023-02-26T00:58:37.448Z,3.00
2023-02-26T01:01:05.430Z,3.38
2023-02-26T01:03:33.920Z,3.03
2023-02-26T01:06:02.004Z,2.58
2023-02-26T01:08:34.962Z,3.22
2023-02-26T01:11:03.140Z,2.90
2023-02-26T01:13:31.180Z,2.90
2023-02-26T01:16:06.139Z,3.42
2023-02-26T01:18:41.768Z,3.55
2023-02-26T01:21:16.270Z,3.20
2023-02-26T01:23:48.885Z,2.78
2023-02-26T01:26:20.613Z,2.47
2023-02-26T01:28:48.796Z,3.60
2023-02-26T01:31:31.411Z,2.58
2023-02-26T01:34:04.378Z,3.10
2023-02-26T01:36:37.939Z,2.70
2023-02-26T01:39:13.653Z,2.65
2023-02-26T01:41:47.699Z,3.15
2023-02-26T01:44:24.660Z,3.65
2023-02-26T01:49:31.504Z,3.30
2023-02-26T01:52:01.391Z,3.00
2023-02-26T01:54:31.676Z,2.95
2023-02-26T01:57:04.915Z,3.22
2023-02-26T01:59:33.880Z,2.28
2023-02-26T02:02:06.121Z,3.05
2023-02-26T02:04:34.521Z,2.97
2023-02-26T02:07:02.304Z,2.63
2023-02-26T02:09:30.087Z,2.80
2023-02-26T02:12:31.107Z,2.47
2023-02-26T02:15:09.957Z,2.55
2023-02-26T02:17:49.864Z,2.78
2023-02-26T02:20:43.707Z,2.38
2023-02-26T02:23:16.697Z,2.70
2023-02-26T02:26:15.688Z,2.95
2023-02-26T02:29:04.292Z,2.60
2023-02-26T02:31:37.872Z,2.38
2023-02-26T02:34:13.355Z,3.20
2023-02-26T02:36:50.180Z,2.40
2023-02-26T02:39:23.122Z,2.67
2023-02-26T02:41:55.521Z,2.47
2023-02-26T02:44:26.369Z,2.85
2023-02-26T02:46:59.297Z,2.20
2023-02-26T02:49:32.885Z,2.17
2023-02-26T02:52:06.580Z,3.72
2023-02-26T02:54:39.222Z,2.33
2023-02-26T02:57:13.687Z,2.50
2023-02-26T02:59:45.014Z,2.13
2023-02-26T03:02:22.102Z,2.28
2023-02-26T03:07:17.578Z,3.35
2023-02-26T03:09:45.660Z,1.95
2023-02-26T03:12:13.460Z,1.98
2023-02-26T03:14:42.152Z,3.08
2023-02-26T03:17:27.094Z,2.20
2023-02-26T03:20:10.082Z,1.85
2023-02-26T03:22:43.869Z,1.90
2023-02-26T03:25:17.616Z,1.90
2023-02-26T03:27:50.546Z,2.58
2023-02-26T03:30:22.814Z,2.33
2023-02-26T03:33:00.298Z,2.38
2023-02-26T03:35:36.961Z,1.50
2023-02-26T03:38:08.476Z,1.88
2023-02-26T03:40:40.242Z,2.75
2023-02-26T03:43:11.695Z,3.20
2023-02-26T03:45:43.477Z,1.88
2023-02-26T03:48:17.137Z,2.53
2023-02-26T03:50:49.370Z,2.20
2023-02-26T03:53:23.687Z,1.88
2023-02-26T03:55:56.625Z,2.20
2023-02-26T03:58:24.581Z,1.83
2023-02-26T04:00:57.245Z,1.60
2023-02-26T04:03:31.929Z,2.17
2023-02-26T04:06:01.021Z,2.20
2023-02-26T04:08:29.753Z,1.58
2023-02-26T04:11:00.577Z,2.20
2023-02-26T04:13:30.197Z,2.25
2023-02-26T04:15:57.916Z,2.10
2023-02-26T04:18:27.049Z,2.33
2023-02-26T04:20:54.763Z,2.30
2023-02-26T04:23:22.568Z,2.10
2023-02-26T04:25:50.284Z,2.10
2023-02-26T04:28:18.524Z,2.35
2023-02-26T04:30:46.269Z,1.88
2023-02-26T04:33:14.033Z,2.30
2023-02-26T04:35:43.175Z,1.90
2023-02-26T04:38:10.907Z,2.03
2023-02-26T04:40:38.657Z,2.28
2023-02-26T04:43:06.511Z,2.08
2023-02-26T04:45:34.208Z,2.95
2023-02-26T04:48:02.047Z,2.13
2023-02-26T04:50:29.746Z,2.90
2023-02-26T04:52:58.933Z,2.20
2023-02-26T04:55:26.605Z,2.45
2023-02-26T04:57:54.571Z,2.53
2023-02-26T05:00:22.772Z,2.40
2023-02-26T05:02:50.459Z,2.65
2023-02-26T05:05:18.204Z,3.40
2023-02-26T05:07:45.880Z,2.17
2023-02-26T05:10:15.008Z,2.10
2023-02-26T05:12:42.721Z,2.83
2023-02-26T05:15:11.184Z,2.13
2023-02-26T05:17:39.018Z,2.33
2023-02-26T05:20:10.064Z,1.90
2023-02-26T05:22:38.077Z,2.28
2023-02-26T05:25:07.193Z,2.13
2023-02-26T05:27:36.334Z,1.65
2023-02-26T05:30:05.117Z,2.03
2023-02-26T05:32:32.852Z,1.70
2023-02-26T05:35:00.614Z,2.10
2023-02-26T05:37:28.402Z,2.53
2023-02-26T05:39:56.066Z,2.05
2023-02-26T05:42:23.777Z,1.60
2023-02-26T05:44:52.912Z,1.90
2023-02-26T05:47:20.764Z,2.00
2023-02-26T05:49:48.547Z,1.58
2023-02-26T05:52:16.536Z,1.60
2023-02-26T05:54:44.320Z,2.17
2023-02-26T05:57:12.029Z,1.88
2023-02-26T05:59:39.723Z,1.73
2023-02-26T06:02:10.073Z,1.63
2023-02-26T06:04:38.049Z,1.40
2023-02-26T06:07:05.825Z,1.60
2023-02-26T06:09:33.633Z,1.70
2023-02-26T06:12:01.343Z,1.77
2023-02-26T06:14:29.269Z,1.35
2023-02-26T06:16:56.971Z,2.17
2023-02-26T06:19:26.202Z,2.10
2023-02-26T06:21:53.903Z,1.95
2023-02-26T06:24:21.941Z,1.67
2023-02-26T06:26:49.792Z,1.90
2023-02-26T06:29:20.322Z,1.88
2023-02-26T06:31:48.904Z,1.33
2023-02-26T06:34:16.944Z,1.90
2023-02-26T06:36:46.373Z,1.60
2023-02-26T06:39:14.102Z,1.83
2023-02-26T06:41:41.876Z,1.65
2023-02-26T06:44:10.248Z,1.38
2023-02-26T06:46:38.031Z,1.75
2023-02-26T06:49:05.851Z,1.40
2023-02-26T06:51:34.464Z,1.50
2023-02-26T06:54:03.839Z,1.05
2023-02-26T06:56:31.634Z,1.70
2023-02-26T06:58:59.387Z,1.30
2023-02-26T07:01:27.319Z,2.10
2023-02-26T07:03:55.116Z,1.45
2023-02-26T07:06:27.670Z,1.15
2023-02-26T07:08:56.609Z,1.25
2023-02-26T07:11:25.728Z,1.15
2023-02-26T07:13:53.471Z,1.45
2023-02-26T07:16:21.221Z,1.40
2023-02-26T07:18:49.072Z,1.55
2023-02-26T07:21:16.769Z,0.88
2023-02-26T07:23:44.507Z,1.50
2023-02-26T07:26:12.260Z,1.52
2023-02-26T07:28:41.404Z,1.40
2023-02-26T07:31:09.261Z,1.30
2023-02-26T07:33:38.703Z,2.25
2023-02-26T07:36:06.926Z,1.10
2023-02-26T07:38:34.652Z,1.15
2023-02-26T07:41:02.423Z,1.42
2023-02-26T07:43:30.149Z,1.10
2023-02-26T07:45:59.237Z,1.38
2023-02-26T07:48:27.065Z,1.23
2023-02-26T07:51:03.091Z,1.44
2023-02-26T07:53:30.817Z,1.65
2023-02-26T07:55:58.542Z,1.33
2023-02-26T07:58:26.367Z,1.67
2023-02-26T08:00:54.068Z,1.25
2023-02-26T08:03:23.229Z,0.98
2023-02-26T08:05:51.005Z,1.35
2023-02-26T08:08:18.742Z,1.48
2023-02-26T08:10:46.487Z,1.08
2023-02-26T08:13:14.217Z,2.05
2023-02-26T08:15:43.973Z,1.33
2023-02-26T08:18:11.969Z,1.30
2023-02-26T08:20:41.054Z,1.30
2023-02-26T08:23:08.751Z,1.20
2023-02-26T08:25:36.860Z,0.90
2023-02-26T08:28:04.602Z,1.58
2023-02-26T08:30:32.929Z,1.38
2023-02-26T08:33:00.683Z,1.40
2023-02-26T08:35:28.456Z,1.33
2023-02-26T08:37:57.613Z,1.00
2023-02-26T08:40:25.325Z,1.58
2023-02-26T08:42:53.012Z,1.38
2023-02-26T08:45:21.337Z,1.30
2023-02-26T08:47:56.834Z,1.30
2023-02-26T08:50:25.371Z,1.75
2023-02-26T08:52:53.201Z,1.60
2023-02-26T08:55:22.780Z,1.00
2023-02-26T08:57:50.550Z,1.20
2023-02-26T09:00:19.370Z,1.38
2023-02-26T09:02:47.427Z,1.45
2023-02-26T09:05:15.774Z,1.42
2023-02-26T09:07:44.063Z,1.30
2023-02-26T09:10:14.068Z,1.20
2023-02-26T09:12:43.673Z,1.10
2023-02-26T09:15:12.679Z,1.60
2023-02-26T09:17:40.412Z,1.05
2023-02-26T09:20:09.933Z,1.55
2023-02-26T09:22:38.075Z,1.35
2023-02-26T09:25:06.837Z,1.30
2023-02-26T09:27:35.862Z,1.40
2023-02-26T09:30:06.391Z,1.27
2023-02-26T09:32:34.484Z,1.35
2023-02-26T09:35:02.646Z,1.05
2023-02-26T09:37:30.410Z,1.50
2023-02-26T09:39:58.400Z,2.22
2023-02-26T09:42:41.079Z,1.35
2023-02-26T09:45:19.605Z,1.48
2023-02-26T09:47:52.610Z,1.42
2023-02-26T09:50:25.325Z,1.50
2023-02-26T09:52:59.779Z,1.35
2023-02-26T09:55:30.956Z,1.40
2023-02-26T09:58:01.626Z,1.25
2023-02-26T10:00:37.756Z,0.88
2023-02-26T10:03:19.263Z,1.45
2023-02-26T10:05:58.479Z,1.15
2023-02-26T10:08:34.823Z,1.08
2023-02-26T10:11:08.130Z,1.40
2023-02-26T10:13:56.523Z,1.00
2023-02-26T10:16:31.517Z,1.08
2023-02-26T10:19:05.040Z,1.30
2023-02-26T10:21:38.971Z,1.45
2023-02-26T10:24:14.283Z,1.23
2023-02-26T10:26:46.699Z,1.17
2023-02-26T10:29:23.156Z,1.13
2023-02-26T10:32:04.609Z,1.13
2023-02-26T10:34:40.240Z,1.08
2023-02-26T10:37:17.916Z,1.10
2023-02-26T10:39:51.601Z,0.90
2023-02-26T10:42:24.040Z,0.80
2023-02-26T10:45:10.311Z,1.23
2023-02-26T10:47:47.536Z,1.10
2023-02-26T10:50:18.898Z,1.25
2023-02-26T10:52:47.278Z,0.90
2023-02-26T10:55:37.826Z,0.82
2023-02-26T10:58:07.802Z,1.00
2023-02-26T11:00:36.444Z,1.00
2023-02-26T11:03:09.169Z,0.98
2023-02-26T11:05:37.092Z,1.08
2023-02-26T11:08:07.668Z,1.20
2023-02-26T11:10:42.882Z,0.88
2023-02-26T11:13:11.012Z,0.68
2023-02-26T11:15:42.415Z,0.93
2023-02-26T11:18:17.751Z,0.85
2023-02-26T11:20:47.952Z,0.80
2023-02-26T11:23:19.940Z,1.05
2023-02-26T11:25:47.980Z,1.35
2023-02-26T11:28:32.649Z,0.90
2023-02-26T11:31:02.920Z,1.25
2023-02-26T11:33:38.614Z,1.35
2023-02-26T11:36:12.512Z,1.20
2023-02-26T11:38:40.520Z,0.93
2023-02-26T11:41:09.040Z,0.82
2023-02-26T11:43:44.113Z,0.75
2023-02-26T11:46:13.618Z,0.80
2023-02-26T11:48:46.222Z,1.08
2023-02-26T11:51:16.871Z,0.93
2023-02-26T11:53:50.415Z,0.98
2023-02-26T11:56:26.250Z,1.00
2023-02-26T11:58:55.955Z,1.10
2023-02-26T12:01:28.752Z,0.70
2023-02-26T12:04:00.995Z,0.90
2023-02-26T12:06:28.884Z,1.05
2023-02-26T12:08:57.123Z,0.68
2023-02-26T12:11:41.094Z,0.98
2023-02-26T12:14:21.698Z,0.95
2023-02-26T12:17:02.310Z,1.13
2023-02-26T12:19:41.754Z,0.73
2023-02-26T12:22:40.356Z,0.88
2023-02-26T12:25:23.568Z,0.70
2023-02-26T12:28:16.908Z,0.85
2023-02-26T12:31:03.901Z,0.80
2023-02-26T12:33:45.547Z,1.02
2023-02-26T12:36:31.702Z,0.88
2023-02-26T12:39:17.691Z,0.85
2023-02-26T12:41:55.677Z,1.10
2023-02-26T12:44:48.181Z,1.30
2023-02-26T12:47:42.795Z,1.17
2023-02-26T12:50:23.657Z,0.80
2023-02-26T12:53:19.241Z,0.95
2023-02-26T12:56:01.623Z,0.93
2023-02-26T12:58:50.463Z,0.90
2023-02-26T13:01:33.825Z,1.10
2023-02-26T13:04:16.362Z,0.70
2023-02-26T13:07:01.728Z,0.73
2023-02-26T13:09:46.517Z,0.80
2023-02-26T13:12:28.942Z,0.95
2023-02-26T13:15:11.648Z,0.75
2023-02-26T13:17:48.633Z,0.80
2023-02-26T13:22:50.756Z,1.20
2023-02-26T13:25:26.417Z,0.68
2023-02-26T13:27:55.921Z,1.20
2023-02-26T13:30:29.386Z,0.70
2023-02-26T13:32:59.579Z,1.02
2023-02-26T13:35:31.021Z,0.98
2023-02-26T13:38:02.863Z,1.02
2023-02-26T13:40:53.075Z,1.00
2023-02-26T13:43:32.807Z,1.10
2023-02-26T13:46:11.775Z,1.25
2023-02-26T13:48:49.750Z,0.70
2023-02-26T13:51:31.624Z,1.23
2023-02-26T13:54:01.728Z,0.88
2023-02-26T13:56:50.880Z,0.80
2023-02-26T13:59:38.876Z,1.10
2023-02-26T14:02:40.000Z,0.90
2023-02-26T14:05:30.653Z,0.77
2023-02-26T14:08:20.778Z,0.80
2023-02-26T14:10:56.587Z,1.33
2023-02-26T14:13:34.713Z,0.77
2023-02-26T14:16:10.766Z,1.20
2023-02-26T14:18:50.286Z,1.07
2023-02-26T14:21:52.173Z,0.90
2023-02-26T14:24:26.472Z,0.80
2023-02-26T14:27:09.320Z,0.90
2023-02-26T14:29:43.933Z,1.13
2023-02-26T14:32:17.558Z,0.90
2023-02-26T14:34:53.245Z,0.90
2023-02-26T14:37:24.396Z,0.85
2023-02-26T14:39:57.478Z,0.93
2023-02-26T14:42:33.325Z,0.80
2023-02-26T14:45:10.545Z,1.00
2023-02-26T14:47:39.159Z,0.88
2023-02-26T14:50:08.365Z,0.80
2023-02-26T14:52:56.070Z,0.77
2023-02-26T14:55:57.094Z,0.90
2023-02-26T14:58:45.592Z,0.88
2023-02-26T15:01:28.206Z,1.17
2023-02-26T15:04:14.513Z,0.93
2023-02-26T15:07:29.886Z,0.90
2023-02-26T15:10:12.448Z,1.48
2023-02-26T15:12:56.669Z,0.93
2023-02-26T15:15:46.136Z,1.10
2023-02-26T15:18:36.303Z,0.80
2023-02-26T15:21:15.036Z,0.98
2023-02-26T15:23:45.685Z,1.02
2023-02-26T15:26:20.278Z,1.05
2023-02-26T15:28:49.079Z,0.80
2023-02-26T15:31:20.001Z,0.88
2023-02-26T15:33:50.977Z,0.93
2023-02-26T15:36:24.265Z,1.02
2023-02-26T15:38:58.722Z,1.05
2023-02-26T15:41:28.822Z,1.10
2023-02-26T15:44:00.487Z,0.90
2023-02-26T15:46:33.028Z,0.80
2023-02-26T15:49:07.943Z,1.02
2023-02-26T15:51:36.419Z,1.73
2023-02-26T15:54:04.898Z,0.93
2023-02-26T15:56:37.742Z,1.00
2023-02-26T15:59:09.544Z,1.15
2023-02-26T16:01:37.750Z,1.35
2023-02-26T16:04:13.572Z,1.38
2023-02-26T16:06:43.167Z,1.10
2023-02-26T16:09:18.277Z,0.88
2023-02-26T16:11:48.528Z,1.08
2023-02-26T16:14:21.183Z,1.08
2023-02-26T16:16:52.409Z,1.15
2023-02-26T16:19:27.749Z,1.05
2023-02-26T16:21:57.122Z,0.90
2023-02-26T16:24:25.018Z,1.48
2023-02-26T16:26:57.566Z,0.88
2023-02-26T16:29:28.708Z,1.13
2023-02-26T16:31:58.408Z,1.20
2023-02-26T16:34:37.443Z,1.30
2023-02-26T16:37:20.590Z,0.90
2023-02-26T16:39:52.700Z,1.02
2023-02-26T16:42:23.280Z,1.05
2023-02-26T16:44:53.378Z,1.00
2023-02-26T16:47:22.083Z,1.00
2023-02-26T16:49:51.562Z,1.35
2023-02-26T16:52:23.506Z,1.08
2023-02-26T16:55:01.465Z,1.00
2023-02-26T16:57:36.592Z,1.02
2023-02-26T17:00:14.931Z,1.10
2023-02-26T17:02:44.428Z,1.67
2023-02-26T17:05:22.752Z,1.08
2023-02-26T17:07:58.249Z,0.98
2023-02-26T17:10:33.656Z,1.10
2023-02-26T17:13:13.354Z,1.20
2023-02-26T17:15:41.889Z,0.90
2023-02-26T17:18:09.672Z,1.10
2023-02-26T17:20:40.185Z,1.42
2023-02-26T17:23:09.874Z,1.48
2023-02-26T17:25:40.997Z,1.40
2023-02-26T17:28:09.515Z,1.10
2023-02-26T17:30:38.287Z,1.48
2023-02-26T17:33:07.838Z,1.23
2023-02-26T17:35:35.772Z,1.40
2023-02-26T17:38:04.969Z,1.23
2023-02-26T17:40:36.442Z,1.67
2023-02-26T17:43:04.719Z,1.70
2023-02-26T17:45:33.505Z,1.33
2023-02-26T17:48:01.497Z,0.90
2023-02-26T17:50:36.572Z,1.55
2023-02-26T17:53:09.445Z,1.10
2023-02-26T17:55:39.478Z,1.20
2023-02-26T17:58:08.498Z,1.42
2023-02-26T18:00:40.706Z,1.20
2023-02-26T18:03:09.801Z,1.30
2023-02-26T18:05:39.249Z,1.48
2023-02-26T18:08:12.700Z,1.17
2023-02-26T18:10:40.495Z,1.67
2023-02-26T18:13:10.188Z,1.80
2023-02-26T18:15:37.967Z,1.52
2023-02-26T18:18:06.337Z,1.20
2023-02-26T18:20:34.101Z,1.38
2023-02-26T18:23:01.787Z,1.20
2023-02-26T18:25:30.888Z,1.50
2023-02-26T18:28:00.359Z,1.30
2023-02-26T18:30:31.282Z,1.33
2023-02-26T18:32:59.332Z,1.50
2023-02-26T18:35:28.796Z,1.10
2023-02-26T18:37:57.010Z,1.35
2023-02-26T18:40:27.149Z,1.33
2023-02-26T18:42:56.762Z,1.20
2023-02-26T18:45:24.760Z,1.42
2023-02-26T18:47:52.548Z,1.48
2023-02-26T18:50:20.332Z,1.25
2023-02-26T18:52:48.164Z,1.60
2023-02-26T18:55:16.184Z,1.50
2023-02-26T18:57:43.931Z,1.30
2023-02-26T19:00:14.961Z,1.63
2023-02-26T19:02:44.414Z,1.35
2023-02-26T19:05:12.557Z,1.40
2023-02-26T19:07:42.591Z,1.42
2023-02-26T19:10:14.650Z,1.70
2023-02-26T19:12:42.436Z,1.70
2023-02-26T19:15:13.773Z,1.63
2023-02-26T19:17:42.270Z,1.70
2023-02-26T19:20:11.662Z,1.65
2023-02-26T19:22:40.039Z,2.35
2023-02-26T19:25:08.550Z,1.67
2023-02-26T19:27:36.680Z,1.70
2023-02-26T19:30:06.194Z,1.85
2023-02-26T19:32:35.423Z,1.70
2023-02-26T19:35:03.168Z,2.05
2023-02-26T19:37:30.956Z,1.65
2023-02-26T19:39:58.687Z,1.75
2023-02-26T19:42:28.320Z,1.55
2023-02-26T19:44:56.864Z,1.65
2023-02-26T19:47:24.689Z,1.58
2023-02-26T19:49:53.800Z,1.70
2023-02-26T19:52:21.583Z,1.88
2023-02-26T19:54:49.315Z,1.63
2023-02-26T19:57:17.042Z,1.98
2023-02-26T19:59:44.935Z,1.60
2023-02-26T20:02:12.710Z,1.80
2023-02-26T20:04:40.554Z,1.50
2023-02-26T20:07:09.851Z,1.50
2023-02-26T20:09:37.579Z,1.42
2023-02-26T20:12:05.592Z,2.35
2023-02-26T20:14:33.351Z,1.45
2023-02-26T20:17:01.336Z,1.65
2023-02-26T20:19:29.867Z,1.50
2023-02-26T20:21:57.787Z,2.42
2023-02-26T20:24:27.149Z,1.60
2023-02-26T20:26:54.950Z,1.15
2023-02-26T20:29:23.595Z,1.58
2023-02-26T20:31:51.646Z,1.40
2023-02-26T20:34:20.275Z,1.20
2023-02-26T20:36:49.978Z,1.45
2023-02-26T20:39:19.092Z,1.58
2023-02-26T20:41:48.265Z,2.47
2023-02-26T20:44:15.977Z,1.85
2023-02-26T20:46:44.211Z,1.52
2023-02-26T20:49:12.338Z,1.92
2023-02-26T20:51:41.284Z,1.55
2023-02-26T20:54:09.526Z,2.08
2023-02-26T20:56:37.332Z,2.08
2023-02-26T20:59:07.716Z,2.00
2023-02-26T21:01:36.386Z,1.60
2023-02-26T21:04:05.257Z,1.83
2023-02-26T21:06:34.116Z,1.65
2023-02-26T21:09:03.185Z,1.50
2023-02-26T21:11:34.572Z,2.05
2023-02-26T21:14:04.097Z,1.95
2023-02-26T21:16:34.382Z,2.03
2023-02-26T21:19:02.725Z,1.50
2023-02-26T21:21:31.031Z,1.90
2023-02-26T21:23:58.922Z,1.55
2023-02-26T21:26:27.721Z,1.85
2023-02-26T21:28:55.653Z,1.67
2023-02-26T21:31:24.113Z,1.85
2023-02-26T21:33:53.225Z,2.00
2023-02-26T21:36:21.943Z,1.20
2023-02-26T21:38:49.762Z,1.92
2023-02-26T21:41:17.517Z,1.70
2023-02-26T21:43:45.397Z,1.73
2023-02-26T21:46:13.154Z,1.80
2023-02-26T21:48:41.170Z,1.70
2023-02-26T21:51:10.313Z,1.38
2023-02-26T21:53:38.061Z,1.40
2023-02-26T21:56:06.123Z,1.92
2023-02-26T21:58:33.860Z,1.42
2023-02-26T22:01:01.864Z,1.42
2023-02-26T22:03:29.650Z,1.85
2023-02-26T22:05:57.516Z,1.85
2023-02-26T22:08:26.548Z,1.80
2023-02-26T22:10:54.319Z,1.30
2023-02-26T22:13:22.029Z,1.45
2023-02-26T22:15:49.741Z,1.27
2023-02-26T22:18:17.472Z,1.45
2023-02-26T22:20:45.188Z,1.92
2023-02-26T22:23:12.883Z,1.52
2023-02-26T22:25:42.001Z,1.27
2023-02-26T22:28:09.881Z,1.52
2023-02-26T22:30:37.790Z,1.40
2023-02-26T22:33:05.648Z,1.05
2023-02-26T22:35:33.605Z,1.98
2023-02-26T22:38:01.366Z,1.38
2023-02-26T22:40:29.084Z,1.67
2023-02-26T22:42:58.773Z,1.70
2023-02-26T22:45:26.513Z,1.33
2023-02-26T22:47:54.204Z,1.50
2023-02-26T22:50:21.933Z,1.25
2023-02-26T22:52:49.987Z,1.40
2023-02-26T22:55:17.926Z,1.50
2023-02-26T22:57:45.689Z,1.25
2023-02-26T23:00:18.704Z,1.40
2023-02-26T23:02:46.733Z,1.80
2023-02-26T23:05:14.748Z,1.42
2023-02-26T23:07:43.288Z,1.10
2023-02-26T23:10:13.951Z,1.55
2023-02-26T23:12:42.213Z,1.38
2023-02-26T23:15:11.188Z,1.35
2023-02-26T23:17:40.855Z,1.70
2023-02-26T23:20:13.720Z,1.17
2023-02-26T23:22:43.667Z,2.05
2023-02-26T23:25:12.077Z,1.48
2023-02-26T23:27:40.137Z,1.80
2023-02-26T23:30:08.993Z,1.33
2023-02-26T23:32:36.841Z,2.17
2023-02-26T23:35:06.663Z,1.60
2023-02-26T23:37:34.404Z,2.20
2023-02-26T23:40:03.766Z,1.20
2023-02-26T23:42:31.599Z,1.20
2023-02-26T23:44:59.320Z,1.65
2023-02-26T23:47:27.091Z,1.60
2023-02-26T23:49:54.793Z,1.58
2023-02-26T23:52:25.726Z,1.55
2023-02-26T23:54:54.429Z,1.77
2023-02-26T23:57:22.239Z,1.20
2023-02-26T23:59:49.954Z,1.73
